»·PEaware :: DAL636 RJTT-KLAX

DAL636 :: RJTT-KLAX

FLIGHT INFORMATION

Flight Status: Arrived
Operator:
Delta Air Lines
More flights by this operator :: More flights under this callsign
Pilot: Justin U. (116)
Aircraft: AIRBUS A330-200
(A332)
More flights by this aircraft type
Origin: RJTT Tokyo (Haneda) Intl
Japan
Destination: KLAX Los Angeles Intl
United States
More flights between these airports :: More routes between these airports
Route: OPPAR PQE BAFFY V16 CHEVY Y824 SMOLT OTR15 MORAY 3400N 15000E 3500N 16000E 3500N 17000E 3600N 18000W 3900N 17000W 4100N 16000W 4100N 15000W 4000N 14000W 3900N 13000W DACEM PAINT PIRAT AVE FIM SADDE6
File this flight plan on PilotEdge
Remarks: SEL / ALFK / V /
Altitude:
(Current/Filed)
41,000ft
Speed:
(Current/Filed)
467kts
Departed: 06-Mar-13 04:18 PM
Arrived: 06-Mar-13 05:45 PM
Distance/Time
Traveled:
4755nm/1:27
Distance/Time
To Go:
Arrived

Flight Plot

Page will automatically refresh every two minutes.


Map Options




Map Legend


Flown Route
Filed Route
Departure Airport
Arrival Airport
Navaid (VOR, NDB)
Fix

Horizontal Profiles

Position Reports

Time Latitude Longitude Heading Altitude Ground
Speed
06-Mar-13 16:16 38.885035 -129.320551 103 35057ft 487kts
06-Mar-13 16:17 38.856011 -129.144876 102 35588ft 512kts
06-Mar-13 16:18 38.826006 -128.967098 103 37222ft 507kts
06-Mar-13 16:19 38.793892 -128.791008 103 38421ft 508kts
06-Mar-13 16:20 38.762710 -128.614527 103 39051ft 505kts
06-Mar-13 16:21 38.731488 -128.438863 103 39065ft 505kts
06-Mar-13 16:22 38.700859 -128.263578 103 39061ft 505kts
06-Mar-13 16:23 38.669910 -128.088467 104 39053ft 505kts
06-Mar-13 16:24 38.636994 -127.911388 104 39037ft 522kts
06-Mar-13 16:25 38.603029 -127.730515 104 39038ft 523kts
06-Mar-13 16:26 38.569347 -127.549920 104 39038ft 523kts
06-Mar-13 16:27 38.535783 -127.369560 104 39037ft 519kts
06-Mar-13 16:28 38.502391 -127.189501 103 39041ft 521kts
06-Mar-13 16:29 38.468563 -127.010009 105 39047ft 520kts
06-Mar-13 16:30 38.419889 -126.837103 115 39053ft 518kts
06-Mar-13 16:31 38.363116 -126.668006 113 39052ft 518kts
06-Mar-13 16:32 38.310862 -126.497001 112 39051ft 519kts
06-Mar-13 16:33 38.258730 -126.326037 112 39048ft 518kts
06-Mar-13 16:34 38.206385 -126.154642 112 39051ft 518kts
06-Mar-13 16:35 38.153245 -125.983905 113 39053ft 518kts
06-Mar-13 16:36 38.099168 -125.814498 114 39052ft 517kts
06-Mar-13 16:37 38.045893 -125.644747 114 39045ft 518kts
06-Mar-13 16:38 37.992396 -125.474692 112 39056ft 519kts
06-Mar-13 16:39 37.945263 -125.301940 110 39059ft 519kts
06-Mar-13 16:40 37.898875 -125.129156 111 39039ft 518kts
06-Mar-13 16:41 37.851628 -124.956870 110 39046ft 518kts
06-Mar-13 16:42 37.805017 -124.783790 111 39039ft 517kts
06-Mar-13 16:43 37.758461 -124.611841 112 39053ft 518kts
06-Mar-13 16:44 37.710650 -124.441476 114 39059ft 510kts
06-Mar-13 16:45 37.661885 -124.271900 114 39058ft 514kts
06-Mar-13 16:46 37.613719 -124.101641 114 39126ft 517kts
06-Mar-13 16:47 37.565881 -123.929964 114 39145ft 520kts
06-Mar-13 16:48 37.517821 -123.758244 115 39136ft 520kts
06-Mar-13 16:49 37.469407 -123.586449 116 39144ft 518kts
06-Mar-13 16:50 37.418950 -123.416773 116 39141ft 519kts
06-Mar-13 16:51 37.369178 -123.246446 116 39131ft 519kts
06-Mar-13 16:52 37.319509 -123.075502 116 39147ft 520kts
06-Mar-13 16:53 37.270137 -122.904963 116 39153ft 520kts
06-Mar-13 16:54 37.205417 -122.747329 135 39144ft 499kts
06-Mar-13 16:55 37.120370 -122.610035 134 39154ft 500kts
06-Mar-13 16:56 37.041605 -122.465840 131 39149ft 503kts
06-Mar-13 16:57 36.964465 -122.320774 132 39150ft 501kts
06-Mar-13 16:58 36.886282 -122.176768 132 39150ft 501kts
06-Mar-13 16:59 36.807970 -122.031673 133 39148ft 500kts
06-Mar-13 17:00 36.728607 -121.889848 133 39148ft 499kts
06-Mar-13 17:01 36.649562 -121.747667 133 39156ft 499kts
06-Mar-13 17:02 36.570807 -121.605244 133 39133ft 500kts
06-Mar-13 17:03 36.491756 -121.462432 133 39137ft 500kts
06-Mar-13 17:04 36.413111 -121.320038 132 39127ft 503kts
06-Mar-13 17:05 36.333016 -121.177503 133 39124ft 502kts
06-Mar-13 17:06 36.252896 -121.036904 133 39111ft 498kts
06-Mar-13 17:07 36.172956 -120.896045 133 39116ft 499kts
06-Mar-13 17:08 36.093347 -120.755584 133 39105ft 499kts
06-Mar-13 17:09 36.014103 -120.615619 134 39104ft 493kts
06-Mar-13 17:11 35.935128 -120.476628 135 39091ft 492kts
06-Mar-13 17:12 35.855247 -120.339789 135 39104ft 493kts
06-Mar-13 17:13 35.775804 -120.202017 135 39102ft 493kts
06-Mar-13 17:14 35.696291 -120.064049 135 39099ft 493kts
06-Mar-13 17:15 35.612594 -119.932883 148 39099ft 473kts
06-Mar-13 17:16 35.505407 -119.846674 160 39098ft 456kts
06-Mar-13 17:17 35.397884 -119.762519 156 39099ft 460kts
06-Mar-13 17:18 35.293026 -119.672379 155 39099ft 461kts
06-Mar-13 17:19 35.187215 -119.581777 155 39099ft 468kts
06-Mar-13 17:20 35.080779 -119.491211 155 38681ft 461kts
06-Mar-13 17:21 34.975972 -119.402874 156 37736ft 457kts
06-Mar-13 17:22 34.871231 -119.315208 156 35981ft 457kts
06-Mar-13 17:23 34.766539 -119.227115 155 33886ft 458kts
06-Mar-13 17:24 34.662237 -119.138862 153 31496ft 455kts
06-Mar-13 17:25 34.558893 -119.051512 154 29095ft 450kts
06-Mar-13 17:26 34.457224 -118.966091 155 26690ft 433kts
06-Mar-13 17:27 34.361329 -118.885066 155 24083ft 409kts
06-Mar-13 17:28 34.268410 -118.842079 176 20191ft 323kts
06-Mar-13 17:29 34.184724 -118.817073 174 16195ft 300kts
06-Mar-13 17:30 34.105539 -118.788838 165 12342ft 299kts
06-Mar-13 17:31 34.044273 -118.720344 121 11089ft 320kts
06-Mar-13 17:32 34.023890 -118.633781 98 9983ft 311kts
06-Mar-13 17:33 34.016741 -118.533600 96 8922ft 295kts
06-Mar-13 17:34 34.011514 -118.436253 86 7723ft 289kts
06-Mar-13 17:35 34.021471 -118.342589 82 7001ft 265kts
06-Mar-13 17:36 34.031461 -118.254348 82 5719ft 265kts
06-Mar-13 17:37 34.041349 -118.167370 82 4610ft 259kts
06-Mar-13 17:38 34.016058 -118.099091 169 3484ft 242kts
06-Mar-13 17:39 33.974345 -118.144453 266 2753ft 217kts
06-Mar-13 17:40 33.973723 -118.213450 261 2478ft 190kts
06-Mar-13 17:41 33.965085 -118.271496 262 2467ft 150kts
06-Mar-13 17:42 33.960614 -118.318620 264 1517ft 137kts
06-Mar-13 17:43 33.956277 -118.363826 264 820ft 130kts
06-Mar-13 17:44 33.951609 -118.406809 262 145ft 115kts
06-Mar-13 17:45 33.948980 -118.419983 232 143ft 15kts
06-Mar-13 17:46 33.947052 -118.419947 81 143ft 24kts
06-Mar-13 17:47 33.946874 -118.413926 170 143ft 9kts
06-Mar-13 17:48 33.939200 -118.412750 172 143ft 31kts
06-Mar-13 17:49 33.938664 -118.405193 5 143ft 13kts
06-Mar-13 17:50 33.940046 -118.401396 307 143ft 0kts
06-Mar-13 17:51 33.940046 -118.401397 307 143ft 0kts

Navigation Log

Ident Type
Flight plan parsing failed, navigation log unavailable